Central City, PA (15926)

6:29 PM EST on December 10, 2016 (GMT -0500)
SHADE | | Change Station
Active Advisory: Winter Weather Advisory Active Notice: Public Information Statement

Elev 2195 ft 40.12 °N, 78.81 °W | Updated 26 seconds ago

Mostly Cloudy
Mostly Cloudy
18.2 °F
Feels Like 18 °F
N
0.0
Wind Variable Wind from WSW

Today
High -- | Low -- °F
--% Chance of Precip.
Yesterday
High -- | Low -- °F
Precip. -- in
Pressure 30.47 in
Visibility 9.0 miles
Clouds Few 1300 ft
Overcast 3700 ft
Windchill 18 °F
Dew Point 14 °F
Humidity 83%
Rainfall 0.00 in
Snow Depth Not available.
7:26 AM 4:49 PM
Waxing Gibbous, 87% visible
METAR KJST 102254Z AUTO 25007KT 9SM FEW013 OVC037 M07/M09 A3035 RMK AO2 SNE33 SLP316 P0000 T10721089 TSNO
Pressure 30.47 in
Visibility 9.0 miles
Clouds Few 1300 ft
Overcast 3700 ft
Windchill 18 °F
Dew Point 14 °F
Humidity 83%
Rainfall 0.00 in
Snow Depth Not available.
7:26 AM 4:49 PM
Waxing Gibbous, 87% visible
METAR KJST 102254Z AUTO 25007KT 9SM FEW013 OVC037 M07/M09 A3035 RMK AO2 SNE33 SLP316 P0000 T10721089 TSNO

10-Day Weather Forecast

Almanac

Astronomy

Dec. 10, 2016 Rise Set
Actual Time
Civil Twilight
Nautical Twilight
Astronomical Twilight
Moon
Length of Visible Light
Length of Day
Tomorrow will be .
, % of the Moon is Illuminated

Today's Extremes

State Highs State Lows

Community

WunderPhotos

Upload Photos

1,956,671 photos uploaded!

WunderBlog® & News

Nearby

Air Quality

  Air Quality AQ Index Pollutant
Not available.

Snow Depth

Station Depth Elevation

Earthquake Activity

City Distance Mag. Time & Date
Minimum magnitude displayed is 2.5.

Coastal Water Temperatures

Place Temperature

Stations

Nearby Weather Stations

Station Location Temp. Windchill Dew Point Humidity Wind Precip. Elev Updated Type
                   

Watches & Warnings

Winter Weather Advisory
Issued: 2:20 PM EST Dec. 10, 2016 – National Weather Service

... Winter Weather Advisory in effect from 4 am Sunday to 1 PM EST
Monday...

* timing... snow will start in the west during the predawn hours of
Sunday and overspread the region Sunday morning. The area from
about Interstate 80 southward will likely see a changeover to
snow-sleet or freezing rain Sunday evening and overnight into
Monday morning.

* Snow accumulations... 3-6 inches from Interstate 80 northward.
1-3 inches south of the Interstate with a light coating of ice
likely late Sunday into Monday morning.

* Main impact... poor Road conditions and hazardous travel.



Precautionary/preparedness actions...

The Pennsylvania Department of Transportation reminds motorists
to adjust speeds based on driving conditions and to take it slow
in ice and snow.